sensor_id;sensor_type;location;lat;lon;timestamp;temperature;humidity
3310;DHT22;1667;53.238;10.394;2023-07-22T00:03:39;18.70;90.10
3310;DHT22;1667;53.238;10.394;2023-07-22T00:08:38;18.60;90.20
3310;DHT22;1667;53.238;10.394;2023-07-22T00:13:37;18.60;90.40
3310;DHT22;1667;53.238;10.394;2023-07-22T00:18:36;18.60;90.50
3310;DHT22;1667;53.238;10.394;2023-07-22T00:23:35;18.50;90.60
3310;DHT22;1667;53.238;10.394;2023-07-22T00:28:34;18.50;90.80
3310;DHT22;1667;53.238;10.394;2023-07-22T00:33:32;18.50;91.00
3310;DHT22;1667;53.238;10.394;2023-07-22T00:38:33;18.50;91.00
3310;DHT22;1667;53.238;10.394;2023-07-22T00:43:32;18.50;91.10
3310;DHT22;1667;53.238;10.394;2023-07-22T00:48:31;18.40;91.10
3310;DHT22;1667;53.238;10.394;2023-07-22T00:53:34;18.40;91.20
3310;DHT22;1667;53.238;10.394;2023-07-22T00:58:33;18.40;91.20
3310;DHT22;1667;53.238;10.394;2023-07-22T01:03:32;18.40;91.40
3310;DHT22;1667;53.238;10.394;2023-07-22T01:08:30;18.30;91.30
3310;DHT22;1667;53.238;10.394;2023-07-22T01:13:30;18.30;91.50
3310;DHT22;1667;53.238;10.394;2023-07-22T01:18:29;18.30;91.50
3310;DHT22;1667;53.238;10.394;2023-07-22T01:23:29;18.20;91.40
3310;DHT22;1667;53.238;10.394;2023-07-22T01:28:28;18.20;91.40
3310;DHT22;1667;53.238;10.394;2023-07-22T01:33:27;18.10;91.40
3310;DHT22;1667;53.238;10.394;2023-07-22T01:38:25;18.10;91.30
3310;DHT22;1667;53.238;10.394;2023-07-22T01:43:25;18.10;91.40
3310;DHT22;1667;53.238;10.394;2023-07-22T01:48:24;18.00;91.50
3310;DHT22;1667;53.238;10.394;2023-07-22T01:53:22;17.90;91.30
3310;DHT22;1667;53.238;10.394;2023-07-22T01:58:20;17.90;91.50
3310;DHT22;1667;53.238;10.394;2023-07-22T02:03:20;17.90;91.40
3310;DHT22;1667;53.238;10.394;2023-07-22T02:08:19;17.80;91.30
3310;DHT22;1667;53.238;10.394;2023-07-22T02:13:37;17.70;91.30
3310;DHT22;1667;53.238;10.394;2023-07-22T02:18:37;17.70;91.30
3310;DHT22;1667;53.238;10.394;2023-07-22T02:23:36;17.60;91.40
3310;DHT22;1667;53.238;10.394;2023-07-22T02:28:34;17.60;91.40
3310;DHT22;1667;53.238;10.394;2023-07-22T02:33:52;17.50;91.30
3310;DHT22;1667;53.238;10.394;2023-07-22T02:38:51;17.50;91.40
3310;DHT22;1667;53.238;10.394;2023-07-22T02:43:49;17.40;91.40
3310;DHT22;1667;53.238;10.394;2023-07-22T02:48:48;17.40;91.30
3310;DHT22;1667;53.238;10.394;2023-07-22T02:53:48;17.30;91.60
3310;DHT22;1667;53.238;10.394;2023-07-22T02:58:46;17.30;91.50
3310;DHT22;1667;53.238;10.394;2023-07-22T03:03:45;17.30;91.50
3310;DHT22;1667;53.238;10.394;2023-07-22T03:08:44;17.20;91.50
3310;DHT22;1667;53.238;10.394;2023-07-22T03:13:43;17.20;91.40
3310;DHT22;1667;53.238;10.394;2023-07-22T03:18:42;17.10;91.50
3310;DHT22;1667;53.238;10.394;2023-07-22T03:23:41;17.10;91.70
3310;DHT22;1667;53.238;10.394;2023-07-22T03:28:40;17.10;91.70
3310;DHT22;1667;53.238;10.394;2023-07-22T03:33:40;17.00;91.60
3310;DHT22;1667;53.238;10.394;2023-07-22T03:38:43;17.00;91.70
3310;DHT22;1667;53.238;10.394;2023-07-22T03:43:41;16.90;91.80
3310;DHT22;1667;53.238;10.394;2023-07-22T03:48:42;16.90;91.80
3310;DHT22;1667;53.238;10.394;2023-07-22T03:53:40;16.90;92.00
3310;DHT22;1667;53.238;10.394;2023-07-22T03:58:39;16.80;92.00
3310;DHT22;1667;53.238;10.394;2023-07-22T04:03:37;16.80;92.20
3310;DHT22;1667;53.238;10.394;2023-07-22T04:15:14;16.80;92.30
3310;DHT22;1667;53.238;10.394;2023-07-22T04:20:14;16.70;92.40
3310;DHT22;1667;53.238;10.394;2023-07-22T04:25:13;16.70;92.60
3310;DHT22;1667;53.238;10.394;2023-07-22T04:30:13;16.70;92.70
3310;DHT22;1667;53.238;10.394;2023-07-22T04:35:18;16.70;92.70
3310;DHT22;1667;53.238;10.394;2023-07-22T04:40:16;16.70;92.90
3310;DHT22;1667;53.238;10.394;2023-07-22T04:51:16;16.70;93.10
3310;DHT22;1667;53.238;10.394;2023-07-22T04:56:15;16.70;93.20
3310;DHT22;1667;53.238;10.394;2023-07-22T05:01:13;16.70;93.50
3310;DHT22;1667;53.238;10.394;2023-07-22T05:12:03;16.90;93.70
3310;DHT22;1667;53.238;10.394;2023-07-22T05:17:02;16.90;93.90
3310;DHT22;1667;53.238;10.394;2023-07-22T05:22:00;16.90;93.90
3310;DHT22;1667;53.238;10.394;2023-07-22T05:26:59;17.00;94.10
3310;DHT22;1667;53.238;10.394;2023-07-22T05:32:08;17.00;94.10
3310;DHT22;1667;53.238;10.394;2023-07-22T05:37:27;17.10;94.20
3310;DHT22;1667;53.238;10.394;2023-07-22T05:42:25;17.10;94.10
3310;DHT22;1667;53.238;10.394;2023-07-22T05:47:26;17.10;94.30
3310;DHT22;1667;53.238;10.394;2023-07-22T05:52:25;17.10;94.40
3310;DHT22;1667;53.238;10.394;2023-07-22T05:57:24;17.20;94.30
3310;DHT22;1667;53.238;10.394;2023-07-22T06:02:52;17.20;94.60
3310;DHT22;1667;53.238;10.394;2023-07-22T06:07:51;17.30;94.50
3310;DHT22;1667;53.238;10.394;2023-07-22T06:12:51;17.30;94.70
3310;DHT22;1667;53.238;10.394;2023-07-22T06:17:50;17.30;94.70
3310;DHT22;1667;53.238;10.394;2023-07-22T06:22:50;17.40;94.60
3310;DHT22;1667;53.238;10.394;2023-07-22T06:27:48;17.50;95.10
3310;DHT22;1667;53.238;10.394;2023-07-22T06:32:47;17.60;94.80
3310;DHT22;1667;53.238;10.394;2023-07-22T06:37:46;17.60;95.00
3310;DHT22;1667;53.238;10.394;2023-07-22T06:42:45;17.70;95.10
3310;DHT22;1667;53.238;10.394;2023-07-22T06:47:44;17.80;95.00
3310;DHT22;1667;53.238;10.394;2023-07-22T06:52:43;17.90;95.00
3310;DHT22;1667;53.238;10.394;2023-07-22T06:57:42;17.90;95.10
3310;DHT22;1667;53.238;10.394;2023-07-22T07:02:42;18.10;95.20
3310;DHT22;1667;53.238;10.394;2023-07-22T07:07:41;18.20;95.30
3310;DHT22;1667;53.238;10.394;2023-07-22T07:12:39;18.30;95.10
3310;DHT22;1667;53.238;10.394;2023-07-22T07:17:38;18.50;95.00
3310;DHT22;1667;53.238;10.394;2023-07-22T07:22:38;18.60;95.00
3310;DHT22;1667;53.238;10.394;2023-07-22T07:27:36;18.70;95.10
3310;DHT22;1667;53.238;10.394;2023-07-22T07:32:35;18.90;95.10
3310;DHT22;1667;53.238;10.394;2023-07-22T07:37:34;19.00;95.10
3310;DHT22;1667;53.238;10.394;2023-07-22T07:42:34;19.20;95.20
3310;DHT22;1667;53.238;10.394;2023-07-22T07:47:33;19.30;95.10
3310;DHT22;1667;53.238;10.394;2023-07-22T07:52:32;19.50;95.00
3310;DHT22;1667;53.238;10.394;2023-07-22T07:57:31;19.60;94.90
3310;DHT22;1667;53.238;10.394;2023-07-22T08:02:31;19.70;94.70
3310;DHT22;1667;53.238;10.394;2023-07-22T08:07:30;19.90;94.70
3310;DHT22;1667;53.238;10.394;2023-07-22T08:12:29;20.00;94.40
3310;DHT22;1667;53.238;10.394;2023-07-22T08:17:27;20.20;94.40
3310;DHT22;1667;53.238;10.394;2023-07-22T08:22:28;20.40;94.20
3310;DHT22;1667;53.238;10.394;2023-07-22T08:27:26;20.50;93.90
3310;DHT22;1667;53.238;10.394;2023-07-22T08:32:24;20.60;93.40
3310;DHT22;1667;53.238;10.394;2023-07-22T08:37:23;20.80;93.20
3310;DHT22;1667;53.238;10.394;2023-07-22T08:42:23;21.00;93.00
3310;DHT22;1667;53.238;10.394;2023-07-22T08:47:26;21.10;92.60
3310;DHT22;1667;53.238;10.394;2023-07-22T08:52:27;21.30;92.30
3310;DHT22;1667;53.238;10.394;2023-07-22T08:57:30;21.40;92.00
3310;DHT22;1667;53.238;10.394;2023-07-22T09:02:29;21.50;91.60
3310;DHT22;1667;53.238;10.394;2023-07-22T09:07:28;21.50;91.30
3310;DHT22;1667;53.238;10.394;2023-07-22T09:12:26;21.60;91.30
3310;DHT22;1667;53.238;10.394;2023-07-22T09:17:27;21.80;91.10
3310;DHT22;1667;53.238;10.394;2023-07-22T09:22:26;21.90;90.50
3310;DHT22;1667;53.238;10.394;2023-07-22T09:27:33;22.10;90.60
3310;DHT22;1667;53.238;10.394;2023-07-22T09:32:37;22.30;90.50
3310;DHT22;1667;53.238;10.394;2023-07-22T09:37:38;22.50;90.30
3310;DHT22;1667;53.238;10.394;2023-07-22T09:42:37;22.60;89.50
3310;DHT22;1667;53.238;10.394;2023-07-22T09:47:41;22.80;88.00
3310;DHT22;1667;53.238;10.394;2023-07-22T09:52:45;23.00;87.80
3310;DHT22;1667;53.238;10.394;2023-07-22T09:57:46;23.20;87.70
3310;DHT22;1667;53.238;10.394;2023-07-22T10:02:47;23.40;87.30
3310;DHT22;1667;53.238;10.394;2023-07-22T10:07:48;23.60;86.70
3310;DHT22;1667;53.238;10.394;2023-07-22T10:12:47;23.70;85.60
3310;DHT22;1667;53.238;10.394;2023-07-22T10:17:47;23.90;85.70
3310;DHT22;1667;53.238;10.394;2023-07-22T10:22:47;24.10;83.80
3310;DHT22;1667;53.238;10.394;2023-07-22T10:28:06;24.30;83.50
3310;DHT22;1667;53.238;10.394;2023-07-22T10:33:06;24.40;83.00
3310;DHT22;1667;53.238;10.394;2023-07-22T10:38:09;24.50;82.60
3310;DHT22;1667;53.238;10.394;2023-07-22T10:43:10;24.60;82.20
3310;DHT22;1667;53.238;10.394;2023-07-22T10:48:11;24.60;81.50
3310;DHT22;1667;53.238;10.394;2023-07-22T10:53:11;24.60;81.90
3310;DHT22;1667;53.238;10.394;2023-07-22T10:58:10;24.60;79.80
3310;DHT22;1667;53.238;10.394;2023-07-22T11:03:13;24.60;79.00
3310;DHT22;1667;53.238;10.394;2023-07-22T11:08:12;24.60;79.20
3310;DHT22;1667;53.238;10.394;2023-07-22T11:13:13;24.70;79.30
3310;DHT22;1667;53.238;10.394;2023-07-22T11:18:13;24.80;79.10
3310;DHT22;1667;53.238;10.394;2023-07-22T11:23:12;25.00;79.00
3310;DHT22;1667;53.238;10.394;2023-07-22T11:28:10;25.10;78.20
3310;DHT22;1667;53.238;10.394;2023-07-22T11:33:13;25.20;77.80
3310;DHT22;1667;53.238;10.394;2023-07-22T11:38:12;25.30;76.70
3310;DHT22;1667;53.238;10.394;2023-07-22T11:43:11;25.20;77.30
3310;DHT22;1667;53.238;10.394;2023-07-22T11:48:11;25.20;76.90
3310;DHT22;1667;53.238;10.394;2023-07-22T11:53:11;25.10;75.60
3310;DHT22;1667;53.238;10.394;2023-07-22T11:58:10;25.20;76.50
3310;DHT22;1667;53.238;10.394;2023-07-22T12:03:09;25.30;76.20
3310;DHT22;1667;53.238;10.394;2023-07-22T12:08:16;25.40;76.10
3310;DHT22;1667;53.238;10.394;2023-07-22T12:13:14;25.50;75.70
3310;DHT22;1667;53.238;10.394;2023-07-22T12:18:13;25.70;75.20
3310;DHT22;1667;53.238;10.394;2023-07-22T12:23:11;25.90;76.10
3310;DHT22;1667;53.238;10.394;2023-07-22T12:28:11;26.10;76.10
3310;DHT22;1667;53.238;10.394;2023-07-22T12:33:10;26.20;75.70
3310;DHT22;1667;53.238;10.394;2023-07-22T12:38:08;26.30;75.70
3310;DHT22;1667;53.238;10.394;2023-07-22T12:43:07;26.50;74.90
3310;DHT22;1667;53.238;10.394;2023-07-22T12:48:08;26.50;74.10
3310;DHT22;1667;53.238;10.394;2023-07-22T12:53:08;26.60;74.30
3310;DHT22;1667;53.238;10.394;2023-07-22T12:58:07;26.70;74.20
3310;DHT22;1667;53.238;10.394;2023-07-22T13:03:06;26.70;73.00
3310;DHT22;1667;53.238;10.394;2023-07-22T13:08:05;26.70;73.60
3310;DHT22;1667;53.238;10.394;2023-07-22T13:13:04;26.60;73.00
3310;DHT22;1667;53.238;10.394;2023-07-22T13:18:14;26.60;73.10
3310;DHT22;1667;53.238;10.394;2023-07-22T13:23:13;26.70;72.30
3310;DHT22;1667;53.238;10.394;2023-07-22T13:28:12;26.60;71.60
3310;DHT22;1667;53.238;10.394;2023-07-22T13:33:11;26.50;72.30
3310;DHT22;1667;53.238;10.394;2023-07-22T13:38:11;26.50;72.50
3310;DHT22;1667;53.238;10.394;2023-07-22T13:43:09;26.40;71.40
3310;DHT22;1667;53.238;10.394;2023-07-22T13:48:08;26.30;71.80
3310;DHT22;1667;53.238;10.394;2023-07-22T13:53:08;26.10;72.30
3310;DHT22;1667;53.238;10.394;2023-07-22T13:58:08;26.00;72.50
3310;DHT22;1667;53.238;10.394;2023-07-22T14:03:07;26.00;72.30
3310;DHT22;1667;53.238;10.394;2023-07-22T14:08:05;25.80;72.50
3310;DHT22;1667;53.238;10.394;2023-07-22T14:13:04;25.80;72.70
3310;DHT22;1667;53.238;10.394;2023-07-22T14:18:04;25.70;73.30
3310;DHT22;1667;53.238;10.394;2023-07-22T14:23:03;25.60;74.80
3310;DHT22;1667;53.238;10.394;2023-07-22T14:28:02;25.50;75.50
3310;DHT22;1667;53.238;10.394;2023-07-22T14:33:00;25.40;75.70
3310;DHT22;1667;53.238;10.394;2023-07-22T14:38:06;25.20;76.50
3310;DHT22;1667;53.238;10.394;2023-07-22T14:43:04;25.00;78.70
3310;DHT22;1667;53.238;10.394;2023-07-22T14:48:04;24.70;78.60
3310;DHT22;1667;53.238;10.394;2023-07-22T14:53:03;24.50;79.60
3310;DHT22;1667;53.238;10.394;2023-07-22T14:58:03;24.30;81.00
3310;DHT22;1667;53.238;10.394;2023-07-22T15:03:02;24.10;83.30
3310;DHT22;1667;53.238;10.394;2023-07-22T15:08:01;24.00;82.70
3310;DHT22;1667;53.238;10.394;2023-07-22T15:13:00;23.90;84.70
3310;DHT22;1667;53.238;10.394;2023-07-22T15:18:01;23.70;85.40
3310;DHT22;1667;53.238;10.394;2023-07-22T15:23:00;23.70;86.00
3310;DHT22;1667;53.238;10.394;2023-07-22T15:27:58;23.60;86.90
3310;DHT22;1667;53.238;10.394;2023-07-22T15:32:57;23.60;88.30
3310;DHT22;1667;53.238;10.394;2023-07-22T15:37:57;23.50;88.30
3310;DHT22;1667;53.238;10.394;2023-07-22T15:42:56;23.50;89.10
3310;DHT22;1667;53.238;10.394;2023-07-22T15:47:54;23.50;89.50
3310;DHT22;1667;53.238;10.394;2023-07-22T15:52:53;23.40;87.40
3310;DHT22;1667;53.238;10.394;2023-07-22T15:57:53;23.30;88.00
3310;DHT22;1667;53.238;10.394;2023-07-22T16:02:52;23.30;88.80
3310;DHT22;1667;53.238;10.394;2023-07-22T16:07:50;23.20;89.00
3310;DHT22;1667;53.238;10.394;2023-07-22T16:12:49;23.20;88.60
3310;DHT22;1667;53.238;10.394;2023-07-22T16:17:49;23.10;88.80
3310;DHT22;1667;53.238;10.394;2023-07-22T16:22:47;23.00;87.70
3310;DHT22;1667;53.238;10.394;2023-07-22T16:27:46;23.00;88.70
3310;DHT22;1667;53.238;10.394;2023-07-22T16:32:44;22.80;88.70
3310;DHT22;1667;53.238;10.394;2023-07-22T16:37:44;23.00;88.70
3310;DHT22;1667;53.238;10.394;2023-07-22T16:42:43;23.00;89.00
3310;DHT22;1667;53.238;10.394;2023-07-22T16:47:41;22.90;88.60
3310;DHT22;1667;53.238;10.394;2023-07-22T16:52:39;22.90;88.40
3310;DHT22;1667;53.238;10.394;2023-07-22T16:57:40;22.90;89.60
3310;DHT22;1667;53.238;10.394;2023-07-22T17:02:42;22.80;89.40
3310;DHT22;1667;53.238;10.394;2023-07-22T17:14:13;22.80;88.80
3310;DHT22;1667;53.238;10.394;2023-07-22T17:19:11;22.60;90.00
3310;DHT22;1667;53.238;10.394;2023-07-22T17:24:13;22.60;90.10
3310;DHT22;1667;53.238;10.394;2023-07-22T17:29:14;22.50;90.00
3310;DHT22;1667;53.238;10.394;2023-07-22T17:34:12;22.40;90.10
3310;DHT22;1667;53.238;10.394;2023-07-22T17:39:10;22.30;89.80
3310;DHT22;1667;53.238;10.394;2023-07-22T17:44:09;22.10;89.60
3310;DHT22;1667;53.238;10.394;2023-07-22T17:49:09;22.00;90.00
3310;DHT22;1667;53.238;10.394;2023-07-22T17:54:08;21.90;89.80
3310;DHT22;1667;53.238;10.394;2023-07-22T17:59:07;21.80;90.20
3310;DHT22;1667;53.238;10.394;2023-07-22T18:04:06;21.80;90.20
3310;DHT22;1667;53.238;10.394;2023-07-22T18:09:05;21.70;90.50
3310;DHT22;1667;53.238;10.394;2023-07-22T18:14:05;21.60;90.50
3310;DHT22;1667;53.238;10.394;2023-07-22T18:19:03;21.50;90.30
3310;DHT22;1667;53.238;10.394;2023-07-22T18:24:02;21.40;90.50
3310;DHT22;1667;53.238;10.394;2023-07-22T18:29:03;21.40;90.20
3310;DHT22;1667;53.238;10.394;2023-07-22T18:34:03;21.30;90.50
3310;DHT22;1667;53.238;10.394;2023-07-22T18:39:01;21.20;90.40
3310;DHT22;1667;53.238;10.394;2023-07-22T18:44:02;21.20;90.70
3310;DHT22;1667;53.238;10.394;2023-07-22T18:49:01;21.10;90.70
3310;DHT22;1667;53.238;10.394;2023-07-22T18:54:00;21.10;90.60
3310;DHT22;1667;53.238;10.394;2023-07-22T18:58:59;21.00;90.60
3310;DHT22;1667;53.238;10.394;2023-07-22T19:03:59;20.90;90.70
3310;DHT22;1667;53.238;10.394;2023-07-22T19:08:57;20.90;90.90
3310;DHT22;1667;53.238;10.394;2023-07-22T19:13:56;20.80;90.80
3310;DHT22;1667;53.238;10.394;2023-07-22T19:18:56;20.80;90.90
3310;DHT22;1667;53.238;10.394;2023-07-22T19:23:56;20.70;90.90
3310;DHT22;1667;53.238;10.394;2023-07-22T19:28:54;20.70;91.00
3310;DHT22;1667;53.238;10.394;2023-07-22T19:33:53;20.60;91.00
3310;DHT22;1667;53.238;10.394;2023-07-22T19:38:51;20.60;91.00
3310;DHT22;1667;53.238;10.394;2023-07-22T19:43:51;20.50;90.70
3310;DHT22;1667;53.238;10.394;2023-07-22T19:48:50;20.50;90.80
3310;DHT22;1667;53.238;10.394;2023-07-22T19:53:48;20.40;90.70
3310;DHT22;1667;53.238;10.394;2023-07-22T19:58:47;20.40;90.60
3310;DHT22;1667;53.238;10.394;2023-07-22T20:03:46;20.40;90.90
3310;DHT22;1667;53.238;10.394;2023-07-22T20:08:45;20.30;91.00
3310;DHT22;1667;53.238;10.394;2023-07-22T20:13:46;20.30;90.90
3310;DHT22;1667;53.238;10.394;2023-07-22T20:18:45;20.20;91.10
3310;DHT22;1667;53.238;10.394;2023-07-22T20:23:44;20.20;91.10
3310;DHT22;1667;53.238;10.394;2023-07-22T20:28:45;20.20;91.20
3310;DHT22;1667;53.238;10.394;2023-07-22T20:33:44;20.10;91.40
3310;DHT22;1667;53.238;10.394;2023-07-22T20:38:43;20.10;91.50
3310;DHT22;1667;53.238;10.394;2023-07-22T20:43:42;20.00;91.40
3310;DHT22;1667;53.238;10.394;2023-07-22T20:48:41;20.00;91.40
3310;DHT22;1667;53.238;10.394;2023-07-22T20:53:40;19.90;91.50
3310;DHT22;1667;53.238;10.394;2023-07-22T20:58:39;19.90;91.40
3310;DHT22;1667;53.238;10.394;2023-07-22T21:03:38;19.90;91.50
3310;DHT22;1667;53.238;10.394;2023-07-22T21:08:36;19.90;91.60
3310;DHT22;1667;53.238;10.394;2023-07-22T21:13:35;19.80;91.60
3310;DHT22;1667;53.238;10.394;2023-07-22T21:18:36;19.80;91.60
3310;DHT22;1667;53.238;10.394;2023-07-22T21:23:35;19.80;91.80
3310;DHT22;1667;53.238;10.394;2023-07-22T21:28:33;19.70;91.70
3310;DHT22;1667;53.238;10.394;2023-07-22T21:33:32;19.70;91.90
3310;DHT22;1667;53.238;10.394;2023-07-22T21:38:32;19.70;92.00
3310;DHT22;1667;53.238;10.394;2023-07-22T21:43:31;19.70;92.00
3310;DHT22;1667;53.238;10.394;2023-07-22T21:48:29;19.60;92.10
3310;DHT22;1667;53.238;10.394;2023-07-22T21:53:28;19.60;92.20
3310;DHT22;1667;53.238;10.394;2023-07-22T21:58:28;19.60;92.40
3310;DHT22;1667;53.238;10.394;2023-07-22T22:03:40;19.60;92.20
3310;DHT22;1667;53.238;10.394;2023-07-22T22:08:38;19.50;92.00
3310;DHT22;1667;53.238;10.394;2023-07-22T22:13:38;19.50;92.30
3310;DHT22;1667;53.238;10.394;2023-07-22T22:18:37;19.40;92.30
3310;DHT22;1667;53.238;10.394;2023-07-22T22:23:36;19.40;92.30
3310;DHT22;1667;53.238;10.394;2023-07-22T22:28:34;19.40;92.50
3310;DHT22;1667;53.238;10.394;2023-07-22T22:33:34;19.40;92.60
3310;DHT22;1667;53.238;10.394;2023-07-22T22:38:33;19.40;92.70
3310;DHT22;1667;53.238;10.394;2023-07-22T22:43:31;19.30;92.70
3310;DHT22;1667;53.238;10.394;2023-07-22T22:48:30;19.30;92.60
3310;DHT22;1667;53.238;10.394;2023-07-22T22:53:30;19.30;92.70
3310;DHT22;1667;53.238;10.394;2023-07-22T22:58:28;19.30;92.90
3310;DHT22;1667;53.238;10.394;2023-07-22T23:03:27;19.30;92.80
3310;DHT22;1667;53.238;10.394;2023-07-22T23:08:44;19.20;92.80
3310;DHT22;1667;53.238;10.394;2023-07-22T23:13:44;19.20;92.60
3310;DHT22;1667;53.238;10.394;2023-07-22T23:18:44;19.20;92.90
3310;DHT22;1667;53.238;10.394;2023-07-22T23:23:45;19.20;93.00
3310;DHT22;1667;53.238;10.394;2023-07-22T23:28:44;19.10;93.00
3310;DHT22;1667;53.238;10.394;2023-07-22T23:33:42;19.10;93.00
3310;DHT22;1667;53.238;10.394;2023-07-22T23:38:41;19.10;93.00
3310;DHT22;1667;53.238;10.394;2023-07-22T23:43:41;19.10;93.00
3310;DHT22;1667;53.238;10.394;2023-07-22T23:48:39;19.10;93.00
3310;DHT22;1667;53.238;10.394;2023-07-22T23:53:37;19.00;93.10
3310;DHT22;1667;53.238;10.394;2023-07-22T23:58:36;19.00;93.10
